sensor_id;sensor_type;location;lat;lon;timestamp;temperature;humidity
28959;DHT22;16066;0.000;0.000;2023-04-25T00:02:21;19.00;44.20
28959;DHT22;16066;0.000;0.000;2023-04-25T00:04:47;19.00;44.80
28959;DHT22;16066;0.000;0.000;2023-04-25T00:07:14;19.00;44.20
28959;DHT22;16066;0.000;0.000;2023-04-25T00:09:42;18.90;44.10
28959;DHT22;16066;0.000;0.000;2023-04-25T00:12:07;18.90;44.00
28959;DHT22;16066;0.000;0.000;2023-04-25T00:14:33;18.90;44.00
28959;DHT22;16066;0.000;0.000;2023-04-25T00:16:59;18.90;44.00
28959;DHT22;16066;0.000;0.000;2023-04-25T00:19:25;18.90;44.00
28959;DHT22;16066;0.000;0.000;2023-04-25T00:21:52;18.90;44.00
28959;DHT22;16066;0.000;0.000;2023-04-25T00:24:19;18.90;44.00
28959;DHT22;16066;0.000;0.000;2023-04-25T00:26:44;18.90;44.10
28959;DHT22;16066;0.000;0.000;2023-04-25T00:29:10;18.90;44.00
28959;DHT22;16066;0.000;0.000;2023-04-25T00:31:35;18.90;44.10
28959;DHT22;16066;0.000;0.000;2023-04-25T00:34:01;18.90;44.00
28959;DHT22;16066;0.000;0.000;2023-04-25T00:36:27;18.90;44.00
28959;DHT22;16066;0.000;0.000;2023-04-25T00:38:53;18.90;44.10
28959;DHT22;16066;0.000;0.000;2023-04-25T00:41:20;18.90;44.00
28959;DHT22;16066;0.000;0.000;2023-04-25T00:43:46;18.90;44.10
28959;DHT22;16066;0.000;0.000;2023-04-25T00:46:12;18.90;44.00
28959;DHT22;16066;0.000;0.000;2023-04-25T00:48:38;18.90;44.00
28959;DHT22;16066;0.000;0.000;2023-04-25T00:51:04;18.90;44.10
28959;DHT22;16066;0.000;0.000;2023-04-25T00:53:30;18.90;44.00
28959;DHT22;16066;0.000;0.000;2023-04-25T00:55:57;18.80;44.00
28959;DHT22;16066;0.000;0.000;2023-04-25T00:58:23;18.80;44.00
28959;DHT22;16066;0.000;0.000;2023-04-25T01:00:50;18.80;44.10
28959;DHT22;16066;0.000;0.000;2023-04-25T01:03:17;18.80;44.00
28959;DHT22;16066;0.000;0.000;2023-04-25T01:05:45;18.80;44.00
28959;DHT22;16066;0.000;0.000;2023-04-25T01:08:11;18.80;44.70
28959;DHT22;16066;0.000;0.000;2023-04-25T01:10:37;18.80;44.00
28959;DHT22;16066;0.000;0.000;2023-04-25T01:13:03;18.80;44.00
28959;DHT22;16066;0.000;0.000;2023-04-25T01:15:28;18.80;44.00
28959;DHT22;16066;0.000;0.000;2023-04-25T01:17:54;18.80;44.00
28959;DHT22;16066;0.000;0.000;2023-04-25T01:20:22;18.80;44.00
28959;DHT22;16066;0.000;0.000;2023-04-25T01:22:48;18.80;44.00
28959;DHT22;16066;0.000;0.000;2023-04-25T01:25:14;18.80;44.10
28959;DHT22;16066;0.000;0.000;2023-04-25T01:27:40;18.80;44.10
28959;DHT22;16066;0.000;0.000;2023-04-25T01:30:06;18.80;44.10
28959;DHT22;16066;0.000;0.000;2023-04-25T01:32:33;18.80;44.00
28959;DHT22;16066;0.000;0.000;2023-04-25T01:35:06;18.80;44.10
28959;DHT22;16066;0.000;0.000;2023-04-25T01:40:02;18.80;44.10
28959;DHT22;16066;0.000;0.000;2023-04-25T01:42:27;18.80;44.10
28959;DHT22;16066;0.000;0.000;2023-04-25T01:44:53;18.80;44.10
28959;DHT22;16066;0.000;0.000;2023-04-25T01:47:18;18.80;44.10
28959;DHT22;16066;0.000;0.000;2023-04-25T01:49:44;18.80;44.00
28959;DHT22;16066;0.000;0.000;2023-04-25T01:52:10;18.80;44.10
28959;DHT22;16066;0.000;0.000;2023-04-25T01:54:35;18.80;44.10
28959;DHT22;16066;0.000;0.000;2023-04-25T01:57:01;18.80;44.10
28959;DHT22;16066;0.000;0.000;2023-04-25T01:59:27;18.80;44.10
28959;DHT22;16066;0.000;0.000;2023-04-25T02:01:52;18.80;44.10
28959;DHT22;16066;0.000;0.000;2023-04-25T02:04:18;18.80;44.10
28959;DHT22;16066;0.000;0.000;2023-04-25T02:06:43;18.80;44.20
28959;DHT22;16066;0.000;0.000;2023-04-25T02:09:09;18.80;44.10
28959;DHT22;16066;0.000;0.000;2023-04-25T02:11:34;18.80;44.10
28959;DHT22;16066;0.000;0.000;2023-04-25T02:14:00;18.70;44.10
28959;DHT22;16066;0.000;0.000;2023-04-25T02:16:26;18.70;44.10
28959;DHT22;16066;0.000;0.000;2023-04-25T02:18:51;18.70;44.10
28959;DHT22;16066;0.000;0.000;2023-04-25T02:21:18;18.70;44.10
28959;DHT22;16066;0.000;0.000;2023-04-25T02:23:43;18.70;44.10
28959;DHT22;16066;0.000;0.000;2023-04-25T02:26:11;18.70;44.10
28959;DHT22;16066;0.000;0.000;2023-04-25T02:28:36;18.70;44.10
28959;DHT22;16066;0.000;0.000;2023-04-25T02:31:02;18.70;44.10
28959;DHT22;16066;0.000;0.000;2023-04-25T02:33:27;18.70;44.00
28959;DHT22;16066;0.000;0.000;2023-04-25T02:35:53;18.70;44.10
28959;DHT22;16066;0.000;0.000;2023-04-25T02:38:18;18.70;44.10
28959;DHT22;16066;0.000;0.000;2023-04-25T02:40:44;18.70;44.10
28959;DHT22;16066;0.000;0.000;2023-04-25T02:43:10;18.70;44.10
28959;DHT22;16066;0.000;0.000;2023-04-25T02:45:35;18.70;44.00
28959;DHT22;16066;0.000;0.000;2023-04-25T02:48:02;18.70;44.10
28959;DHT22;16066;0.000;0.000;2023-04-25T02:50:28;18.70;44.10
28959;DHT22;16066;0.000;0.000;2023-04-25T02:52:53;18.70;44.10
28959;DHT22;16066;0.000;0.000;2023-04-25T02:55:19;18.70;44.10
28959;DHT22;16066;0.000;0.000;2023-04-25T02:57:44;18.70;44.00
28959;DHT22;16066;0.000;0.000;2023-04-25T03:00:11;18.70;44.10
28959;DHT22;16066;0.000;0.000;2023-04-25T03:02:37;18.70;44.10
28959;DHT22;16066;0.000;0.000;2023-04-25T03:05:02;18.70;44.10
28959;DHT22;16066;0.000;0.000;2023-04-25T03:07:28;18.70;44.10
28959;DHT22;16066;0.000;0.000;2023-04-25T03:09:54;18.70;44.20
28959;DHT22;16066;0.000;0.000;2023-04-25T03:12:20;18.70;44.10
28959;DHT22;16066;0.000;0.000;2023-04-25T03:14:46;18.70;44.10
28959;DHT22;16066;0.000;0.000;2023-04-25T03:17:11;18.70;44.20
28959;DHT22;16066;0.000;0.000;2023-04-25T03:19:37;18.70;44.10
28959;DHT22;16066;0.000;0.000;2023-04-25T03:22:02;18.70;44.10
28959;DHT22;16066;0.000;0.000;2023-04-25T03:24:28;18.70;44.10
28959;DHT22;16066;0.000;0.000;2023-04-25T03:26:53;18.70;44.10
28959;DHT22;16066;0.000;0.000;2023-04-25T03:29:19;18.70;44.10
28959;DHT22;16066;0.000;0.000;2023-04-25T03:31:49;18.70;44.10
28959;DHT22;16066;0.000;0.000;2023-04-25T03:34:15;18.70;44.00
28959;DHT22;16066;0.000;0.000;2023-04-25T03:36:40;18.70;44.10
28959;DHT22;16066;0.000;0.000;2023-04-25T03:39:06;18.60;44.10
28959;DHT22;16066;0.000;0.000;2023-04-25T03:41:31;18.70;44.10
28959;DHT22;16066;0.000;0.000;2023-04-25T03:43:57;18.60;44.10
28959;DHT22;16066;0.000;0.000;2023-04-25T03:46:22;18.70;44.10
28959;DHT22;16066;0.000;0.000;2023-04-25T03:48:48;18.60;44.10
28959;DHT22;16066;0.000;0.000;2023-04-25T03:51:13;18.60;44.10
28959;DHT22;16066;0.000;0.000;2023-04-25T03:53:39;18.70;44.70
28959;DHT22;16066;0.000;0.000;2023-04-25T03:56:05;18.60;44.00
28959;DHT22;16066;0.000;0.000;2023-04-25T03:58:30;18.60;44.10
28959;DHT22;16066;0.000;0.000;2023-04-25T04:00:56;18.60;44.00
28959;DHT22;16066;0.000;0.000;2023-04-25T04:03:21;18.60;44.10
28959;DHT22;16066;0.000;0.000;2023-04-25T04:05:47;18.60;44.00
28959;DHT22;16066;0.000;0.000;2023-04-25T04:08:13;18.60;44.00
28959;DHT22;16066;0.000;0.000;2023-04-25T04:10:38;18.60;44.10
28959;DHT22;16066;0.000;0.000;2023-04-25T04:13:04;18.60;44.10
28959;DHT22;16066;0.000;0.000;2023-04-25T04:15:29;18.50;44.10
28959;DHT22;16066;0.000;0.000;2023-04-25T04:17:58;18.50;44.10
28959;DHT22;16066;0.000;0.000;2023-04-25T04:20:28;18.50;44.20
28959;DHT22;16066;0.000;0.000;2023-04-25T04:22:53;18.50;44.20
28959;DHT22;16066;0.000;0.000;2023-04-25T04:25:19;18.50;44.10
28959;DHT22;16066;0.000;0.000;2023-04-25T04:27:45;18.50;44.20
28959;DHT22;16066;0.000;0.000;2023-04-25T04:30:11;18.50;44.20
28959;DHT22;16066;0.000;0.000;2023-04-25T04:32:37;18.50;44.20
28959;DHT22;16066;0.000;0.000;2023-04-25T04:35:04;18.50;44.20
28959;DHT22;16066;0.000;0.000;2023-04-25T04:37:29;18.50;44.20
28959;DHT22;16066;0.000;0.000;2023-04-25T04:39:55;18.50;44.20
28959;DHT22;16066;0.000;0.000;2023-04-25T04:42:21;18.50;44.10
28959;DHT22;16066;0.000;0.000;2023-04-25T04:44:46;18.60;44.20
28959;DHT22;16066;0.000;0.000;2023-04-25T04:47:12;18.60;44.20
28959;DHT22;16066;0.000;0.000;2023-04-25T04:49:39;18.60;44.20
28959;DHT22;16066;0.000;0.000;2023-04-25T04:52:05;18.60;44.20
28959;DHT22;16066;0.000;0.000;2023-04-25T04:54:30;18.60;44.20
28959;DHT22;16066;0.000;0.000;2023-04-25T04:56:56;18.60;44.20
28959;DHT22;16066;0.000;0.000;2023-04-25T04:59:22;18.60;44.20
28959;DHT22;16066;0.000;0.000;2023-04-25T05:01:47;18.60;44.10
28959;DHT22;16066;0.000;0.000;2023-04-25T05:04:13;18.60;44.10
28959;DHT22;16066;0.000;0.000;2023-04-25T05:06:38;18.70;44.20
28959;DHT22;16066;0.000;0.000;2023-04-25T05:09:04;18.70;44.10
28959;DHT22;16066;0.000;0.000;2023-04-25T05:11:29;18.70;43.90
28959;DHT22;16066;0.000;0.000;2023-04-25T05:13:55;18.70;43.70
28959;DHT22;16066;0.000;0.000;2023-04-25T05:16:21;18.70;43.60
28959;DHT22;16066;0.000;0.000;2023-04-25T05:18:47;18.70;43.60
28959;DHT22;16066;0.000;0.000;2023-04-25T05:21:13;18.70;43.50
28959;DHT22;16066;0.000;0.000;2023-04-25T05:23:38;18.70;43.40
28959;DHT22;16066;0.000;0.000;2023-04-25T05:26:04;18.70;43.70
28959;DHT22;16066;0.000;0.000;2023-04-25T05:28:29;18.80;43.80
28959;DHT22;16066;0.000;0.000;2023-04-25T05:30:56;18.90;43.90
28959;DHT22;16066;0.000;0.000;2023-04-25T05:33:21;18.90;43.90
28959;DHT22;16066;0.000;0.000;2023-04-25T05:35:47;19.00;44.10
28959;DHT22;16066;0.000;0.000;2023-04-25T05:38:12;19.10;44.10
28959;DHT22;16066;0.000;0.000;2023-04-25T05:40:38;19.10;44.00
28959;DHT22;16066;0.000;0.000;2023-04-25T05:43:03;19.20;44.10
28959;DHT22;16066;0.000;0.000;2023-04-25T05:45:29;19.20;44.10
28959;DHT22;16066;0.000;0.000;2023-04-25T05:47:55;19.20;43.90
28959;DHT22;16066;0.000;0.000;2023-04-25T05:50:20;19.30;43.80
28959;DHT22;16066;0.000;0.000;2023-04-25T05:52:46;19.30;43.70
28959;DHT22;16066;0.000;0.000;2023-04-25T05:55:11;19.30;43.80
28959;DHT22;16066;0.000;0.000;2023-04-25T05:57:37;19.40;43.80
28959;DHT22;16066;0.000;0.000;2023-04-25T06:00:07;19.30;43.50
28959;DHT22;16066;0.000;0.000;2023-04-25T06:02:34;19.40;43.50
28959;DHT22;16066;0.000;0.000;2023-04-25T06:05:00;19.40;43.40
28959;DHT22;16066;0.000;0.000;2023-04-25T06:07:29;19.40;43.30
28959;DHT22;16066;0.000;0.000;2023-04-25T06:09:55;19.50;43.50
28959;DHT22;16066;0.000;0.000;2023-04-25T06:12:20;19.50;43.50
28959;DHT22;16066;0.000;0.000;2023-04-25T06:14:46;19.50;43.50
28959;DHT22;16066;0.000;0.000;2023-04-25T06:17:11;19.60;43.80
28959;DHT22;16066;0.000;0.000;2023-04-25T06:19:37;19.60;43.60
28959;DHT22;16066;0.000;0.000;2023-04-25T06:22:02;19.60;43.50
28959;DHT22;16066;0.000;0.000;2023-04-25T06:24:28;19.70;43.70
28959;DHT22;16066;0.000;0.000;2023-04-25T06:26:54;19.70;43.80
28959;DHT22;16066;0.000;0.000;2023-04-25T06:29:20;19.70;43.90
28959;DHT22;16066;0.000;0.000;2023-04-25T06:31:46;19.70;44.00
28959;DHT22;16066;0.000;0.000;2023-04-25T06:34:11;19.70;44.00
28959;DHT22;16066;0.000;0.000;2023-04-25T06:36:37;19.80;44.10
28959;DHT22;16066;0.000;0.000;2023-04-25T06:39:02;19.80;44.00
28959;DHT22;16066;0.000;0.000;2023-04-25T06:41:28;19.90;44.70
28959;DHT22;16066;0.000;0.000;2023-04-25T06:43:53;19.90;43.80
28959;DHT22;16066;0.000;0.000;2023-04-25T06:46:19;19.90;43.60
28959;DHT22;16066;0.000;0.000;2023-04-25T06:48:45;19.90;43.50
28959;DHT22;16066;0.000;0.000;2023-04-25T06:51:10;19.90;43.30
28959;DHT22;16066;0.000;0.000;2023-04-25T06:53:36;19.90;43.40
28959;DHT22;16066;0.000;0.000;2023-04-25T06:56:01;20.00;43.50
28959;DHT22;16066;0.000;0.000;2023-04-25T06:58:28;20.00;43.50
28959;DHT22;16066;0.000;0.000;2023-04-25T07:00:53;20.00;43.40
28959;DHT22;16066;0.000;0.000;2023-04-25T07:03:19;20.00;43.30
28959;DHT22;16066;0.000;0.000;2023-04-25T07:05:45;20.00;43.10
28959;DHT22;16066;0.000;0.000;2023-04-25T07:08:11;20.00;43.00
28959;DHT22;16066;0.000;0.000;2023-04-25T07:10:36;20.00;43.10
28959;DHT22;16066;0.000;0.000;2023-04-25T07:13:02;20.10;43.40
28959;DHT22;16066;0.000;0.000;2023-04-25T07:15:28;20.10;43.40
28959;DHT22;16066;0.000;0.000;2023-04-25T07:17:53;20.10;42.90
28959;DHT22;16066;0.000;0.000;2023-04-25T07:20:19;20.10;42.60
28959;DHT22;16066;0.000;0.000;2023-04-25T07:22:44;20.20;42.60
28959;DHT22;16066;0.000;0.000;2023-04-25T07:25:10;20.20;42.40
28959;DHT22;16066;0.000;0.000;2023-04-25T07:27:35;20.20;42.30
28959;DHT22;16066;0.000;0.000;2023-04-25T07:30:01;20.20;42.10
28959;DHT22;16066;0.000;0.000;2023-04-25T07:32:26;20.20;42.10
28959;DHT22;16066;0.000;0.000;2023-04-25T07:34:52;20.20;42.10
28959;DHT22;16066;0.000;0.000;2023-04-25T07:37:17;20.20;42.10
28959;DHT22;16066;0.000;0.000;2023-04-25T07:39:44;20.20;42.30
28959;DHT22;16066;0.000;0.000;2023-04-25T07:42:11;20.10;42.20
28959;DHT22;16066;0.000;0.000;2023-04-25T07:44:37;20.10;42.30
28959;DHT22;16066;0.000;0.000;2023-04-25T07:47:07;20.10;42.40
28959;DHT22;16066;0.000;0.000;2023-04-25T07:49:36;20.10;42.40
28959;DHT22;16066;0.000;0.000;2023-04-25T07:52:02;20.00;42.40
28959;DHT22;16066;0.000;0.000;2023-04-25T07:54:28;20.00;42.50
28959;DHT22;16066;0.000;0.000;2023-04-25T07:56:53;20.00;42.50
28959;DHT22;16066;0.000;0.000;2023-04-25T07:59:19;20.00;42.50
28959;DHT22;16066;0.000;0.000;2023-04-25T08:01:45;20.00;42.50
28959;DHT22;16066;0.000;0.000;2023-04-25T08:04:11;19.90;42.40
28959;DHT22;16066;0.000;0.000;2023-04-25T08:06:36;19.90;42.50
28959;DHT22;16066;0.000;0.000;2023-04-25T08:09:02;19.90;42.40
28959;DHT22;16066;0.000;0.000;2023-04-25T08:11:28;19.90;42.50
28959;DHT22;16066;0.000;0.000;2023-04-25T08:13:54;19.90;42.50
28959;DHT22;16066;0.000;0.000;2023-04-25T08:16:20;19.90;42.60
28959;DHT22;16066;0.000;0.000;2023-04-25T08:18:45;19.90;42.60
28959;DHT22;16066;0.000;0.000;2023-04-25T08:21:11;19.90;42.70
28959;DHT22;16066;0.000;0.000;2023-04-25T08:23:38;19.90;42.80
28959;DHT22;16066;0.000;0.000;2023-04-25T08:26:03;19.80;42.70
28959;DHT22;16066;0.000;0.000;2023-04-25T08:28:30;19.90;42.80
28959;DHT22;16066;0.000;0.000;2023-04-25T08:30:55;19.80;42.70
28959;DHT22;16066;0.000;0.000;2023-04-25T08:33:21;19.80;42.70
28959;DHT22;16066;0.000;0.000;2023-04-25T08:35:46;19.80;42.70
28959;DHT22;16066;0.000;0.000;2023-04-25T08:38:12;19.80;43.20
28959;DHT22;16066;0.000;0.000;2023-04-25T08:40:39;19.80;42.60
28959;DHT22;16066;0.000;0.000;2023-04-25T08:43:06;19.80;43.30
28959;DHT22;16066;0.000;0.000;2023-04-25T08:45:38;19.70;42.60
28959;DHT22;16066;0.000;0.000;2023-04-25T08:48:10;19.80;42.70
28959;DHT22;16066;0.000;0.000;2023-04-25T08:50:45;19.80;42.80
28959;DHT22;16066;0.000;0.000;2023-04-25T08:53:12;19.80;42.80
28959;DHT22;16066;0.000;0.000;2023-04-25T08:55:41;19.80;42.80
28959;DHT22;16066;0.000;0.000;2023-04-25T08:58:07;19.80;42.80
28959;DHT22;16066;0.000;0.000;2023-04-25T09:00:34;19.80;42.80
28959;DHT22;16066;0.000;0.000;2023-04-25T09:02:59;19.70;42.70
28959;DHT22;16066;0.000;0.000;2023-04-25T09:05:25;19.70;42.70
28959;DHT22;16066;0.000;0.000;2023-04-25T09:07:51;19.70;42.60
28959;DHT22;16066;0.000;0.000;2023-04-25T09:10:16;19.70;42.70
28959;DHT22;16066;0.000;0.000;2023-04-25T09:12:42;19.70;42.60
28959;DHT22;16066;0.000;0.000;2023-04-25T09:15:10;19.70;42.60
28959;DHT22;16066;0.000;0.000;2023-04-25T09:17:35;19.70;42.50
28959;DHT22;16066;0.000;0.000;2023-04-25T09:20:10;19.70;42.50
28959;DHT22;16066;0.000;0.000;2023-04-25T09:22:36;19.70;42.50
28959;DHT22;16066;0.000;0.000;2023-04-25T09:25:09;19.70;42.40
28959;DHT22;16066;0.000;0.000;2023-04-25T09:27:35;19.70;42.40
28959;DHT22;16066;0.000;0.000;2023-04-25T09:30:01;19.70;42.40
28959;DHT22;16066;0.000;0.000;2023-04-25T09:32:27;19.80;42.40
28959;DHT22;16066;0.000;0.000;2023-04-25T09:34:54;19.80;42.30
28959;DHT22;16066;0.000;0.000;2023-04-25T09:37:28;19.80;42.90
28959;DHT22;16066;0.000;0.000;2023-04-25T09:39:55;19.70;42.20
28959;DHT22;16066;0.000;0.000;2023-04-25T09:42:23;19.80;42.40
28959;DHT22;16066;0.000;0.000;2023-04-25T09:44:51;19.70;42.30
28959;DHT22;16066;0.000;0.000;2023-04-25T09:47:17;19.70;42.30
28959;DHT22;16066;0.000;0.000;2023-04-25T09:49:43;19.70;42.30
28959;DHT22;16066;0.000;0.000;2023-04-25T09:52:14;19.70;42.20
28959;DHT22;16066;0.000;0.000;2023-04-25T09:54:40;19.80;42.90
28959;DHT22;16066;0.000;0.000;2023-04-25T09:57:15;19.80;42.30
28959;DHT22;16066;0.000;0.000;2023-04-25T09:59:47;19.80;42.30
28959;DHT22;16066;0.000;0.000;2023-04-25T10:02:18;19.80;42.30
28959;DHT22;16066;0.000;0.000;2023-04-25T10:04:48;19.80;42.30
28959;DHT22;16066;0.000;0.000;2023-04-25T10:07:15;19.80;42.20
28959;DHT22;16066;0.000;0.000;2023-04-25T10:09:42;19.80;42.30
28959;DHT22;16066;0.000;0.000;2023-04-25T10:12:11;19.80;42.20
28959;DHT22;16066;0.000;0.000;2023-04-25T10:14:36;19.80;42.20
28959;DHT22;16066;0.000;0.000;2023-04-25T10:17:02;19.80;42.20
28959;DHT22;16066;0.000;0.000;2023-04-25T10:19:28;19.80;42.20
28959;DHT22;16066;0.000;0.000;2023-04-25T10:22:07;19.90;42.40
28959;DHT22;16066;0.000;0.000;2023-04-25T10:24:35;19.90;42.30
28959;DHT22;16066;0.000;0.000;2023-04-25T10:27:02;19.80;42.20
28959;DHT22;16066;0.000;0.000;2023-04-25T10:29:28;19.80;42.20
28959;DHT22;16066;0.000;0.000;2023-04-25T10:31:54;19.80;42.30
28959;DHT22;16066;0.000;0.000;2023-04-25T10:34:24;19.80;42.10
28959;DHT22;16066;0.000;0.000;2023-04-25T10:36:52;19.80;42.10
28959;DHT22;16066;0.000;0.000;2023-04-25T10:39:23;19.80;42.10
28959;DHT22;16066;0.000;0.000;2023-04-25T10:41:58;19.80;42.10
28959;DHT22;16066;0.000;0.000;2023-04-25T10:44:30;19.80;42.10
28959;DHT22;16066;0.000;0.000;2023-04-25T10:47:00;19.80;42.10
28959;DHT22;16066;0.000;0.000;2023-04-25T10:49:42;19.80;42.10
28959;DHT22;16066;0.000;0.000;2023-04-25T10:52:19;19.80;42.00
28959;DHT22;16066;0.000;0.000;2023-04-25T10:54:57;19.80;41.90
28959;DHT22;16066;0.000;0.000;2023-04-25T11:00:14;19.90;41.80
28959;DHT22;16066;0.000;0.000;2023-04-25T11:02:48;19.90;41.80
28959;DHT22;16066;0.000;0.000;2023-04-25T11:05:35;19.90;41.80
28959;DHT22;16066;0.000;0.000;2023-04-25T11:08:01;19.90;41.40
28959;DHT22;16066;0.000;0.000;2023-04-25T11:10:29;19.90;41.40
28959;DHT22;16066;0.000;0.000;2023-04-25T11:12:56;19.90;41.50
28959;DHT22;16066;0.000;0.000;2023-04-25T11:15:21;19.90;41.40
28959;DHT22;16066;0.000;0.000;2023-04-25T11:17:47;20.00;41.70
28959;DHT22;16066;0.000;0.000;2023-04-25T11:20:13;19.90;41.70
28959;DHT22;16066;0.000;0.000;2023-04-25T11:22:41;19.90;41.60
28959;DHT22;16066;0.000;0.000;2023-04-25T11:25:10;20.00;41.80
28959;DHT22;16066;0.000;0.000;2023-04-25T11:27:55;20.00;41.70
28959;DHT22;16066;0.000;0.000;2023-04-25T11:30:24;20.00;41.60
28959;DHT22;16066;0.000;0.000;2023-04-25T11:32:50;20.00;41.60
28959;DHT22;16066;0.000;0.000;2023-04-25T11:35:17;20.00;41.40
28959;DHT22;16066;0.000;0.000;2023-04-25T11:37:43;20.10;41.30
28959;DHT22;16066;0.000;0.000;2023-04-25T11:40:11;20.10;41.40
28959;DHT22;16066;0.000;0.000;2023-04-25T11:42:44;20.10;41.20
28959;DHT22;16066;0.000;0.000;2023-04-25T11:45:11;20.10;41.20
28959;DHT22;16066;0.000;0.000;2023-04-25T11:47:37;20.10;41.00
28959;DHT22;16066;0.000;0.000;2023-04-25T11:50:05;20.10;40.90
28959;DHT22;16066;0.000;0.000;2023-04-25T11:52:42;20.10;40.90
28959;DHT22;16066;0.000;0.000;2023-04-25T11:55:10;20.10;41.00
28959;DHT22;16066;0.000;0.000;2023-04-25T11:57:39;20.10;41.10
28959;DHT22;16066;0.000;0.000;2023-04-25T12:00:08;20.10;41.10
28959;DHT22;16066;0.000;0.000;2023-04-25T12:02:40;20.10;41.20
28959;DHT22;16066;0.000;0.000;2023-04-25T12:05:07;20.10;40.80
28959;DHT22;16066;0.000;0.000;2023-04-25T12:07:33;20.10;40.70
28959;DHT22;16066;0.000;0.000;2023-04-25T12:09:59;20.10;40.80
28959;DHT22;16066;0.000;0.000;2023-04-25T12:12:32;20.20;40.80
28959;DHT22;16066;0.000;0.000;2023-04-25T12:15:08;20.10;40.60
28959;DHT22;16066;0.000;0.000;2023-04-25T12:17:34;20.10;40.60
28959;DHT22;16066;0.000;0.000;2023-04-25T12:20:06;20.10;40.60
28959;DHT22;16066;0.000;0.000;2023-04-25T12:22:32;20.20;40.60
28959;DHT22;16066;0.000;0.000;2023-04-25T12:24:58;20.20;40.50
28959;DHT22;16066;0.000;0.000;2023-04-25T12:27:25;20.20;40.40
28959;DHT22;16066;0.000;0.000;2023-04-25T12:29:53;20.20;40.40
28959;DHT22;16066;0.000;0.000;2023-04-25T12:32:19;20.20;40.40
28959;DHT22;16066;0.000;0.000;2023-04-25T12:34:44;20.20;40.30
28959;DHT22;16066;0.000;0.000;2023-04-25T12:37:10;20.20;40.20
28959;DHT22;16066;0.000;0.000;2023-04-25T12:39:36;20.20;40.20
28959;DHT22;16066;0.000;0.000;2023-04-25T12:42:02;20.20;40.20
28959;DHT22;16066;0.000;0.000;2023-04-25T12:44:28;20.20;40.20
28959;DHT22;16066;0.000;0.000;2023-04-25T12:46:53;20.20;40.20
28959;DHT22;16066;0.000;0.000;2023-04-25T12:49:20;20.10;40.10
28959;DHT22;16066;0.000;0.000;2023-04-25T12:51:45;20.10;39.80
28959;DHT22;16066;0.000;0.000;2023-04-25T12:54:12;20.10;40.00
28959;DHT22;16066;0.000;0.000;2023-04-25T12:56:37;20.20;40.10
28959;DHT22;16066;0.000;0.000;2023-04-25T12:59:03;20.10;39.70
28959;DHT22;16066;0.000;0.000;2023-04-25T13:01:29;20.10;39.50
28959;DHT22;16066;0.000;0.000;2023-04-25T13:03:55;20.10;39.20
28959;DHT22;16066;0.000;0.000;2023-04-25T13:06:22;20.10;39.10
28959;DHT22;16066;0.000;0.000;2023-04-25T13:08:47;20.10;39.30
28959;DHT22;16066;0.000;0.000;2023-04-25T13:11:13;20.10;39.50
28959;DHT22;16066;0.000;0.000;2023-04-25T13:13:40;20.10;39.30
28959;DHT22;16066;0.000;0.000;2023-04-25T13:16:07;20.10;40.00
28959;DHT22;16066;0.000;0.000;2023-04-25T13:18:33;20.10;39.40
28959;DHT22;16066;0.000;0.000;2023-04-25T13:20:59;20.20;39.60
28959;DHT22;16066;0.000;0.000;2023-04-25T13:23:26;20.20;39.60
28959;DHT22;16066;0.000;0.000;2023-04-25T13:25:51;20.30;39.70
28959;DHT22;16066;0.000;0.000;2023-04-25T13:28:17;20.30;39.70
28959;DHT22;16066;0.000;0.000;2023-04-25T13:30:43;20.30;39.80
28959;DHT22;16066;0.000;0.000;2023-04-25T13:33:08;20.40;40.00
28959;DHT22;16066;0.000;0.000;2023-04-25T13:35:37;20.40;40.00
28959;DHT22;16066;0.000;0.000;2023-04-25T13:38:03;20.40;39.90
28959;DHT22;16066;0.000;0.000;2023-04-25T13:40:29;20.50;40.00
28959;DHT22;16066;0.000;0.000;2023-04-25T13:42:55;20.50;39.80
28959;DHT22;16066;0.000;0.000;2023-04-25T13:45:21;20.50;39.80
28959;DHT22;16066;0.000;0.000;2023-04-25T13:47:47;20.50;39.90
28959;DHT22;16066;0.000;0.000;2023-04-25T13:50:13;20.60;40.10
28959;DHT22;16066;0.000;0.000;2023-04-25T13:52:39;20.50;40.10
28959;DHT22;16066;0.000;0.000;2023-04-25T13:55:05;20.50;40.20
28959;DHT22;16066;0.000;0.000;2023-04-25T13:57:32;20.50;40.30
28959;DHT22;16066;0.000;0.000;2023-04-25T13:59:58;20.50;40.40
28959;DHT22;16066;0.000;0.000;2023-04-25T14:02:25;20.50;40.40
28959;DHT22;16066;0.000;0.000;2023-04-25T14:04:51;20.40;40.50
28959;DHT22;16066;0.000;0.000;2023-04-25T14:07:16;20.40;40.50
28959;DHT22;16066;0.000;0.000;2023-04-25T14:09:43;20.40;40.70
28959;DHT22;16066;0.000;0.000;2023-04-25T14:12:09;20.40;40.70
28959;DHT22;16066;0.000;0.000;2023-04-25T14:14:34;20.40;40.70
28959;DHT22;16066;0.000;0.000;2023-04-25T14:17:00;20.40;40.70
28959;DHT22;16066;0.000;0.000;2023-04-25T14:19:26;20.40;41.00
28959;DHT22;16066;0.000;0.000;2023-04-25T14:21:51;20.40;41.00
28959;DHT22;16066;0.000;0.000;2023-04-25T14:24:17;20.50;40.90
28959;DHT22;16066;0.000;0.000;2023-04-25T14:26:43;20.50;40.80
28959;DHT22;16066;0.000;0.000;2023-04-25T14:29:09;20.50;40.80
28959;DHT22;16066;0.000;0.000;2023-04-25T14:31:37;20.50;40.60
28959;DHT22;16066;0.000;0.000;2023-04-25T14:34:04;20.50;40.50
28959;DHT22;16066;0.000;0.000;2023-04-25T14:36:31;20.50;40.60
28959;DHT22;16066;0.000;0.000;2023-04-25T14:38:57;20.50;40.50
28959;DHT22;16066;0.000;0.000;2023-04-25T14:41:23;20.50;40.60
28959;DHT22;16066;0.000;0.000;2023-04-25T14:43:48;20.50;40.50
28959;DHT22;16066;0.000;0.000;2023-04-25T14:46:14;20.50;40.50
28959;DHT22;16066;0.000;0.000;2023-04-25T14:48:40;20.50;40.40
28959;DHT22;16066;0.000;0.000;2023-04-25T14:51:06;20.50;40.40
28959;DHT22;16066;0.000;0.000;2023-04-25T14:53:31;20.60;40.40
28959;DHT22;16066;0.000;0.000;2023-04-25T14:55:57;20.60;40.40
28959;DHT22;16066;0.000;0.000;2023-04-25T14:58:23;20.60;40.30
28959;DHT22;16066;0.000;0.000;2023-04-25T15:00:48;20.60;40.30
28959;DHT22;16066;0.000;0.000;2023-04-25T15:03:14;20.60;40.30
28959;DHT22;16066;0.000;0.000;2023-04-25T15:05:41;20.60;40.30
28959;DHT22;16066;0.000;0.000;2023-04-25T15:08:07;20.70;40.40
28959;DHT22;16066;0.000;0.000;2023-04-25T15:10:32;20.70;40.30
28959;DHT22;16066;0.000;0.000;2023-04-25T15:12:58;20.70;40.10
28959;DHT22;16066;0.000;0.000;2023-04-25T15:15:23;20.70;40.10
28959;DHT22;16066;0.000;0.000;2023-04-25T15:17:49;20.70;40.10
28959;DHT22;16066;0.000;0.000;2023-04-25T15:20:15;20.70;40.20
28959;DHT22;16066;0.000;0.000;2023-04-25T15:22:43;20.70;40.40
28959;DHT22;16066;0.000;0.000;2023-04-25T15:25:10;20.70;40.40
28959;DHT22;16066;0.000;0.000;2023-04-25T15:27:36;20.70;40.50
28959;DHT22;16066;0.000;0.000;2023-04-25T15:30:09;20.70;40.40
28959;DHT22;16066;0.000;0.000;2023-04-25T15:32:36;20.70;40.00
28959;DHT22;16066;0.000;0.000;2023-04-25T15:35:04;20.70;40.00
28959;DHT22;16066;0.000;0.000;2023-04-25T15:37:30;20.60;39.80
28959;DHT22;16066;0.000;0.000;2023-04-25T15:40:07;20.50;39.80
28959;DHT22;16066;0.000;0.000;2023-04-25T15:42:44;20.50;39.90
28959;DHT22;16066;0.000;0.000;2023-04-25T15:45:16;20.50;40.10
28959;DHT22;16066;0.000;0.000;2023-04-25T15:47:42;20.50;40.00